Paganella — DEDG2 — position and weather

sailwx.info

Track history (hours):
 
Tides and Currents Weather Stations Pressure Air Temp Water Temp Dewpoint Dewpoint Depression Visibility Wind Speed Wind Dir Waves Ship Positions

Paganella

Last reported at 2017-Dec-11 16:59 UTC. Time now 2017-Dec-14 13:25 UTC.
Position N 35°25' E 139°41'.

Length 183 m; draft 7.8 m.

Type: Cargo ship. MMSI: 218822000.

Date/timePositionNaut miles runAvg speedWind from/ knotsBaromVisibWave heightAir tempDewpointWater temp
2017-Dec-11 16:59N 35°25' E 139°41'0 0.0
2017-Dec-11 16:23N 35°25' E 139°41'0 0.0
2017-Dec-11 15:59N 35°25' E 139°41'0 0.0
2017-Dec-11 15:29N 35°25' E 139°41'0 0.0
2017-Dec-11 14:59N 35°25' E 139°41'0 0.0
2017-Dec-11 14:29N 35°25' E 139°41'0 0.0
2017-Dec-11 13:59N 35°25' E 139°41'0 0.0
2017-Dec-11 13:29N 35°25' E 139°41'0 0.0
2017-Dec-11 12:59N 35°25' E 139°41'0 0.0
2017-Dec-11 12:29N 35°25' E 139°41'0 0.0
2017-Dec-11 11:56N 35°25' E 139°41'0 0.0
2017-Dec-11 11:29N 35°25' E 139°41'0 0.0
2017-Dec-11 10:59N 35°25' E 139°41'0 0.0
2017-Dec-11 10:29N 35°25' E 139°41'0 0.0
2017-Dec-11 09:59N 35°25' E 139°41'0 0.0
2017-Dec-11 09:29N 35°25' E 139°41'0 0.1
2017-Dec-11 09:01N 35°25' E 139°41'1 2.5
2017-Dec-11 08:31N 35°25' E 139°42'1 2.3
2017-Dec-11 08:01N 35°26' E 139°43'3 5.7
2017-Dec-11 07:31N 35°28' E 139°45'2 3.3
2017-Dec-11 06:56N 35°30' E 139°46'0 0.0
2017-Dec-11 06:29N 35°30' E 139°46'0 0.0
2017-Dec-11 05:59N 35°30' E 139°46'0 0.0
2017-Dec-11 05:26N 35°30' E 139°46'0 0.0
2017-Dec-11 04:59N 35°30' E 139°46'0 0.0
2017-Dec-11 04:29N 35°30' E 139°46'0 0.0
2017-Dec-11 03:59N 35°30' E 139°46'0 0.0
2017-Dec-11 03:17N 35°30' E 139°46'0 0.0
2017-Dec-11 02:56N 35°30' E 139°46'0 0.0
2017-Dec-11 02:26N 35°30' E 139°46'0 0.0
2017-Dec-11 01:59N 35°30' E 139°46'0 0.0
2017-Dec-11 01:26N 35°30' E 139°46'0 0.0
2017-Dec-11 00:59N 35°30' E 139°46'0 0.0
2017-Dec-11 00:29N 35°30' E 139°46'0 0.0
2017-Dec-10 23:59N 35°30' E 139°46'0 0.0
2017-Dec-10 23:26N 35°30' E 139°46'0 0.0
2017-Dec-10 22:59N 35°30' E 139°46'0 0.1
2017-Dec-10 22:26N 35°30' E 139°46'1 3.0
2017-Dec-10 22:00N 35°29' E 139°48'612.1
2017-Dec-10 21:31N 35°23' E 139°46'612.0
2017-Dec-10 21:01N 35°17' E 139°46'612.8
2017-Dec-10 20:31N 35°11' E 139°47'5 9.0
2017-Dec-10 20:00N 35°06' E 139°46'611.9
2017-Dec-10 19:30N 35°01' E 139°42'511.0
2017-Dec-10 19:01N 34°56' E 139°42'510.8
2017-Dec-10 18:30N 34°51' E 139°46'712.3
2017-Dec-10 17:56N 34°50' E 139°55'511.7
2017-Dec-10 17:30N 34°52' E 140°01'612.4
2017-Dec-10 17:00N 34°55' E 140°07'712.4
2017-Dec-10 16:25N 34°59' E 140°15'512.6
2017-Dec-10 15:59N 35°02' E 140°20'20 0.4
2017-Dec-08 16:50N 35°14' E 140°39'413.1
2017-Dec-08 16:30N 35°11' E 140°36'914.3
2017-Dec-08 15:51N 35°06' E 140°26'515.9
2017-Dec-08 15:30N 35°03' E 140°21'815.4
2017-Dec-08 15:00N 34°59' E 140°13'714.4
2017-Dec-08 14:30N 34°55' E 140°06'814.0
2017-Dec-08 13:57N 34°50' E 139°58'614.3
2017-Dec-08 13:30N 34°50' E 139°50'815.9
2017-Dec-08 13:00N 34°55' E 139°43'714.0
2017-Dec-08 12:30N 35°02' E 139°41'815.7
2017-Dec-08 12:00N 35°09' E 139°45'611.9
2017-Dec-08 11:30N 35°15' E 139°46'612.3
2017-Dec-08 11:00N 35°20' E 139°43'611.9
2017-Dec-08 10:30N 35°26' E 139°45'713.3
2017-Dec-08 10:00N 35°30' E 139°52'713.9
2017-Dec-08 09:30N 35°33' E 139°59'611.4
2017-Dec-08 09:00N 35°36' E 140°06'0 0.3
2017-Dec-08 08:28N 35°36' E 140°06'0 0.0
2017-Dec-08 07:58N 35°36' E 140°06'0 0.0
2017-Dec-08 07:28N 35°36' E 140°06'0 0.0
2017-Dec-08 06:58N 35°36' E 140°06'0 0.0
2017-Dec-08 06:28N 35°36' E 140°06'0 0.0
2017-Dec-08 05:58N 35°36' E 140°06'0 0.0
2017-Dec-08 05:28N 35°36' E 140°06'0 0.0
2017-Dec-08 04:58N 35°36' E 140°06'0 0.0
2017-Dec-08 04:28N 35°36' E 140°06'0 0.0
2017-Dec-08 03:58N 35°36' E 140°06'0 0.0
2017-Dec-08 03:28N 35°36' E 140°06'0 0.0
2017-Dec-08 02:58N 35°36' E 140°06'0 0.0
2017-Dec-08 02:28N 35°36' E 140°06'0 0.0
2017-Dec-08 01:58N 35°36' E 140°06'0 0.0
2017-Dec-08 01:28N 35°36' E 140°06'0 0.0
2017-Dec-08 00:58N 35°36' E 140°06'0 0.1
2017-Dec-08 00:28N 35°36' E 140°06'0 0.1
2017-Dec-07 23:58N 35°36' E 140°06'0 0.0
2017-Dec-07 23:28N 35°36' E 140°06'0 0.0
2017-Dec-07 22:58N 35°36' E 140°06'0 0.3
2017-Dec-07 22:30N 35°36' E 140°06'3 5.1
2017-Dec-07 22:00N 35°35' E 140°03'4 7.5
2017-Dec-07 21:30N 35°33' E 139°59'5 9.6
2017-Dec-07 21:01N 35°30' E 139°54'815.3
2017-Dec-07 20:31N 35°25' E 139°47'612.2
2017-Dec-07 20:00N 35°19' E 139°44'612.0
2017-Dec-07 19:31N 35°14' E 139°47'510.5
2017-Dec-07 19:01N 35°09' E 139°45'713.3
2017-Dec-07 18:30N 35°03' E 139°41'612.9
2017-Dec-07 18:00N 34°59' E 139°35'713.4
2017-Dec-07 17:29N 34°55' E 139°27'714.2
2017-Dec-07 17:00N 34°52' E 139°20'714.6
2017-Dec-07 16:30N 34°46' E 139°14'714.7
2017-Dec-07 16:00N 34°40' E 139°09'816.3
2017-Dec-07 15:30N 34°34' E 139°04'816.4
2017-Dec-07 15:00N 34°28' E 138°57'5016.7
2017-Dec-07 12:00N 34°00' E 138°06'18115.1 300 / 171016.810.8 13.0 9.420.0
2017-Dec-07 00:00N 32°12' E 135°12'57416.0 040 / 81022.610.8 14.0 9.523.0
2017-Dec-05 12:00N 27°12' E 125°48'7813.1 360 / 331021.8 5.4 14.010.524.0
2017-Dec-05 06:00N 26°36' E 124°30'313 8.0 020 / 371021.010.8 16.1 7.324.0
2017-Dec-03 14:49N 23°57' E 119°33'3 7.6
2017-Dec-03 14:28N 23°56' E 119°30'3 7.4
2017-Dec-03 14:00N 23°55' E 119°26'2713.5
2017-Dec-03 12:00N 23°42' E 119°00'284 9.6 030 / 401015.4 2.2 19.017.521.0
2017-Dec-02 06:21N 22°17' E 114°06'3 0.3
2017-Dec-01 20:19N 22°20' E 114°07'  
Track history (hours):
 
Tides and Currents Weather Stations Pressure Air Temp Water Temp Dewpoint Dewpoint Depression Visibility Wind Speed Wind Dir Waves Ship Positions

Paganella

Last reported at 2017-Dec-11 16:59 UTC. Time now 2017-Dec-14 13:25 UTC.
Position N 35°25' E 139°41'.

Length 183 m; draft 7.8 m.

Type: Cargo ship. MMSI: 218822000.

Date/timePositionNaut miles runAvg speedWind from/ knotsBaromVisibWave heightAir tempDewpointWater temp
2017-Dec-11 16:59N 35°25' E 139°41'0 0.0
2017-Dec-11 16:23N 35°25' E 139°41'0 0.0
2017-Dec-11 15:59N 35°25' E 139°41'0 0.0
2017-Dec-11 15:29N 35°25' E 139°41'0 0.0
2017-Dec-11 14:59N 35°25' E 139°41'0 0.0
2017-Dec-11 14:29N 35°25' E 139°41'0 0.0
2017-Dec-11 13:59N 35°25' E 139°41'0 0.0
2017-Dec-11 13:29N 35°25' E 139°41'0 0.0
2017-Dec-11 12:59N 35°25' E 139°41'0 0.0
2017-Dec-11 12:29N 35°25' E 139°41'0 0.0
2017-Dec-11 11:56N 35°25' E 139°41'0 0.0
2017-Dec-11 11:29N 35°25' E 139°41'0 0.0
2017-Dec-11 10:59N 35°25' E 139°41'0 0.0
2017-Dec-11 10:29N 35°25' E 139°41'0 0.0
2017-Dec-11 09:59N 35°25' E 139°41'0 0.0
2017-Dec-11 09:29N 35°25' E 139°41'0 0.1
2017-Dec-11 09:01N 35°25' E 139°41'1 2.5
2017-Dec-11 08:31N 35°25' E 139°42'1 2.3
2017-Dec-11 08:01N 35°26' E 139°43'3 5.7
2017-Dec-11 07:31N 35°28' E 139°45'2 3.3
2017-Dec-11 06:56N 35°30' E 139°46'0 0.0
2017-Dec-11 06:29N 35°30' E 139°46'0 0.0
2017-Dec-11 05:59N 35°30' E 139°46'0 0.0
2017-Dec-11 05:26N 35°30' E 139°46'0 0.0
2017-Dec-11 04:59N 35°30' E 139°46'0 0.0
2017-Dec-11 04:29N 35°30' E 139°46'0 0.0
2017-Dec-11 03:59N 35°30' E 139°46'0 0.0
2017-Dec-11 03:17N 35°30' E 139°46'0 0.0
2017-Dec-11 02:56N 35°30' E 139°46'0 0.0
2017-Dec-11 02:26N 35°30' E 139°46'0 0.0
2017-Dec-11 01:59N 35°30' E 139°46'0 0.0
2017-Dec-11 01:26N 35°30' E 139°46'0 0.0
2017-Dec-11 00:59N 35°30' E 139°46'0 0.0
2017-Dec-11 00:29N 35°30' E 139°46'0 0.0
2017-Dec-10 23:59N 35°30' E 139°46'0 0.0
2017-Dec-10 23:26N 35°30' E 139°46'0 0.0
2017-Dec-10 22:59N 35°30' E 139°46'0 0.1
2017-Dec-10 22:26N 35°30' E 139°46'1 3.0
2017-Dec-10 22:00N 35°29' E 139°48'612.1
2017-Dec-10 21:31N 35°23' E 139°46'612.0
2017-Dec-10 21:01N 35°17' E 139°46'612.8
2017-Dec-10 20:31N 35°11' E 139°47'5 9.0
2017-Dec-10 20:00N 35°06' E 139°46'611.9
2017-Dec-10 19:30N 35°01' E 139°42'511.0
2017-Dec-10 19:01N 34°56' E 139°42'510.8
2017-Dec-10 18:30N 34°51' E 139°46'712.3
2017-Dec-10 17:56N 34°50' E 139°55'511.7
2017-Dec-10 17:30N 34°52' E 140°01'612.4
2017-Dec-10 17:00N 34°55' E 140°07'712.4
2017-Dec-10 16:25N 34°59' E 140°15'512.6
2017-Dec-10 15:59N 35°02' E 140°20'20 0.4
2017-Dec-08 16:50N 35°14' E 140°39'413.1
2017-Dec-08 16:30N 35°11' E 140°36'914.3
2017-Dec-08 15:51N 35°06' E 140°26'515.9
2017-Dec-08 15:30N 35°03' E 140°21'815.4
2017-Dec-08 15:00N 34°59' E 140°13'714.4
2017-Dec-08 14:30N 34°55' E 140°06'814.0
2017-Dec-08 13:57N 34°50' E 139°58'614.3
2017-Dec-08 13:30N 34°50' E 139°50'815.9
2017-Dec-08 13:00N 34°55' E 139°43'714.0
2017-Dec-08 12:30N 35°02' E 139°41'815.7
2017-Dec-08 12:00N 35°09' E 139°45'611.9
2017-Dec-08 11:30N 35°15' E 139°46'612.3
2017-Dec-08 11:00N 35°20' E 139°43'611.9
2017-Dec-08 10:30N 35°26' E 139°45'713.3
2017-Dec-08 10:00N 35°30' E 139°52'713.9
2017-Dec-08 09:30N 35°33' E 139°59'611.4
2017-Dec-08 09:00N 35°36' E 140°06'0 0.3
2017-Dec-08 08:28N 35°36' E 140°06'0 0.0
2017-Dec-08 07:58N 35°36' E 140°06'0 0.0
2017-Dec-08 07:28N 35°36' E 140°06'0 0.0
2017-Dec-08 06:58N 35°36' E 140°06'0 0.0
2017-Dec-08 06:28N 35°36' E 140°06'0 0.0
2017-Dec-08 05:58N 35°36' E 140°06'0 0.0
2017-Dec-08 05:28N 35°36' E 140°06'0 0.0
2017-Dec-08 04:58N 35°36' E 140°06'0 0.0
2017-Dec-08 04:28N 35°36' E 140°06'0 0.0
2017-Dec-08 03:58N 35°36' E 140°06'0 0.0
2017-Dec-08 03:28N 35°36' E 140°06'0 0.0
2017-Dec-08 02:58N 35°36' E 140°06'0 0.0
2017-Dec-08 02:28N 35°36' E 140°06'0 0.0
2017-Dec-08 01:58N 35°36' E 140°06'0 0.0
2017-Dec-08 01:28N 35°36' E 140°06'0 0.0
2017-Dec-08 00:58N 35°36' E 140°06'0 0.1
2017-Dec-08 00:28N 35°36' E 140°06'0 0.1
2017-Dec-07 23:58N 35°36' E 140°06'0 0.0
2017-Dec-07 23:28N 35°36' E 140°06'0 0.0
2017-Dec-07 22:58N 35°36' E 140°06'0 0.3
2017-Dec-07 22:30N 35°36' E 140°06'3 5.1
2017-Dec-07 22:00N 35°35' E 140°03'4 7.5
2017-Dec-07 21:30N 35°33' E 139°59'5 9.6
2017-Dec-07 21:01N 35°30' E 139°54'815.3
2017-Dec-07 20:31N 35°25' E 139°47'612.2
2017-Dec-07 20:00N 35°19' E 139°44'612.0
2017-Dec-07 19:31N 35°14' E 139°47'510.5
2017-Dec-07 19:01N 35°09' E 139°45'713.3
2017-Dec-07 18:30N 35°03' E 139°41'612.9
2017-Dec-07 18:00N 34°59' E 139°35'713.4
2017-Dec-07 17:29N 34°55' E 139°27'714.2
2017-Dec-07 17:00N 34°52' E 139°20'714.6
2017-Dec-07 16:30N 34°46' E 139°14'714.7
2017-Dec-07 16:00N 34°40' E 139°09'816.3
2017-Dec-07 15:30N 34°34' E 139°04'816.4
2017-Dec-07 15:00N 34°28' E 138°57'5016.7
2017-Dec-07 12:00N 34°00' E 138°06'18115.1 300 / 171016.810.8 13.0 9.420.0
2017-Dec-07 00:00N 32°12' E 135°12'57416.0 040 / 81022.610.8 14.0 9.523.0
2017-Dec-05 12:00N 27°12' E 125°48'7813.1 360 / 331021.8 5.4 14.010.524.0
2017-Dec-05 06:00N 26°36' E 124°30'313 8.0 020 / 371021.010.8 16.1 7.324.0
2017-Dec-03 14:49N 23°57' E 119°33'3 7.6
2017-Dec-03 14:28N 23°56' E 119°30'3 7.4
2017-Dec-03 14:00N 23°55' E 119°26'2713.5
2017-Dec-03 12:00N 23°42' E 119°00'284 9.6 030 / 401015.4 2.2 19.017.521.0
2017-Dec-02 06:21N 22°17' E 114°06'3 0.3
2017-Dec-01 20:19N 22°20' E 114°07'  

Dump ship's entire track history